createdAt,value
2023-01-26T00:01:22.068Z,24.23
2023-01-26T00:03:49.954Z,25.30
2023-01-26T00:06:18.759Z,25.23
2023-01-26T00:08:47.999Z,25.33
2023-01-26T00:11:18.128Z,25.70
2023-01-26T00:13:45.642Z,25.17
2023-01-26T00:16:14.895Z,27.08
2023-01-26T00:18:42.707Z,25.70
2023-01-26T00:21:13.999Z,26.00
2023-01-26T00:26:10.215Z,26.27
2023-01-26T00:28:38.957Z,25.05
2023-01-26T00:31:08.428Z,24.50
2023-01-26T00:33:37.688Z,26.65
2023-01-26T00:36:05.313Z,25.73
2023-01-26T00:38:32.562Z,26.08
2023-01-26T00:40:59.495Z,26.27
2023-01-26T00:43:26.679Z,25.50
2023-01-26T00:45:53.579Z,27.00
2023-01-26T00:48:22.526Z,27.02
2023-01-26T00:50:52.486Z,27.75
2023-01-26T00:53:20.238Z,28.45
2023-01-26T00:55:47.090Z,27.92
2023-01-26T00:58:14.279Z,27.67
2023-01-26T01:00:41.264Z,27.90
2023-01-26T01:03:08.552Z,27.98
2023-01-26T01:05:35.939Z,28.67
2023-01-26T01:08:03.364Z,28.42
2023-01-26T01:10:30.341Z,28.17
2023-01-26T01:12:57.541Z,27.25
2023-01-26T01:15:25.100Z,27.80
2023-01-26T01:17:52.439Z,29.05
2023-01-26T01:20:19.838Z,29.70
2023-01-26T01:22:47.277Z,27.20
2023-01-26T01:25:14.303Z,27.50
2023-01-26T01:27:41.639Z,29.98
2023-01-26T01:30:09.463Z,26.38
2023-01-26T01:32:37.076Z,28.45
2023-01-26T01:35:04.225Z,27.30
2023-01-26T01:37:31.737Z,26.40
2023-01-26T01:39:58.573Z,26.33
2023-01-26T01:42:26.513Z,28.20
2023-01-26T01:45:38.728Z,27.45
2023-01-26T01:48:13.795Z,26.95
2023-01-26T01:50:41.083Z,27.90
2023-01-26T01:53:14.623Z,27.98
2023-01-26T01:55:42.227Z,27.20
2023-01-26T01:58:09.780Z,28.88
2023-01-26T02:00:36.720Z,28.30
2023-01-26T02:03:14.674Z,27.70
2023-01-26T02:05:44.805Z,28.50
2023-01-26T02:08:14.633Z,28.00
2023-01-26T02:10:43.706Z,26.50
2023-01-26T02:13:12.081Z,27.67
2023-01-26T02:15:42.127Z,28.50
2023-01-26T02:18:11.461Z,28.73
2023-01-26T02:20:46.995Z,27.70
2023-01-26T02:23:35.116Z,28.30
2023-01-26T02:26:15.530Z,26.83
2023-01-26T02:28:45.172Z,27.73
2023-01-26T02:31:13.309Z,26.65
2023-01-26T02:33:42.446Z,28.63
2023-01-26T02:36:18.595Z,27.98
2023-01-26T02:39:28.026Z,26.42
2023-01-26T02:42:14.021Z,27.05
2023-01-26T02:44:43.105Z,27.65
2023-01-26T02:47:17.738Z,26.48
2023-01-26T02:49:52.364Z,25.80
2023-01-26T02:52:26.434Z,28.65
2023-01-26T02:55:19.318Z,26.92
2023-01-26T02:57:46.836Z,25.67
2023-01-26T03:00:18.484Z,27.42
2023-01-26T03:05:13.289Z,26.17
2023-01-26T03:07:40.905Z,26.27
2023-01-26T03:10:09.592Z,25.55
2023-01-26T03:12:37.324Z,27.42
2023-01-26T03:15:23.849Z,25.02
2023-01-26T03:17:51.815Z,24.55
2023-01-26T03:20:37.760Z,26.67
2023-01-26T03:23:23.296Z,25.58
2023-01-26T03:26:12.316Z,25.90
2023-01-26T03:28:39.362Z,24.70
2023-01-26T03:31:07.526Z,25.83
2023-01-26T03:33:34.514Z,24.10
2023-01-26T03:36:02.031Z,25.58
2023-01-26T03:38:30.119Z,25.63
2023-01-26T03:41:17.268Z,24.67
2023-01-26T03:44:02.825Z,25.83
2023-01-26T03:46:48.735Z,25.77
2023-01-26T03:49:34.393Z,24.90
2023-01-26T03:52:20.363Z,25.75
2023-01-26T03:55:07.237Z,25.88
2023-01-26T03:57:34.521Z,24.45
2023-01-26T04:00:01.437Z,24.90
2023-01-26T04:02:48.027Z,25.27
2023-01-26T04:05:33.913Z,25.05
2023-01-26T04:08:22.941Z,23.00
2023-01-26T04:10:55.663Z,22.58
2023-01-26T04:13:43.343Z,25.08
2023-01-26T04:16:35.242Z,23.63
2023-01-26T04:19:21.138Z,23.67
2023-01-26T04:21:48.040Z,25.30
2023-01-26T04:24:22.319Z,23.77
2023-01-26T04:26:53.640Z,23.58
2023-01-26T04:29:28.187Z,24.15
2023-01-26T04:31:55.580Z,23.45
2023-01-26T04:34:23.711Z,24.80
2023-01-26T04:36:50.959Z,23.65
2023-01-26T04:39:19.740Z,24.85
2023-01-26T04:41:50.547Z,25.40
2023-01-26T04:44:19.668Z,26.70
2023-01-26T04:46:48.870Z,24.20
2023-01-26T04:49:16.444Z,24.95
2023-01-26T04:51:43.283Z,24.25
2023-01-26T04:54:10.876Z,23.52
2023-01-26T04:56:41.520Z,23.40
2023-01-26T04:59:10.956Z,22.90
2023-01-26T05:01:41.511Z,23.70
2023-01-26T05:04:11.600Z,22.92
2023-01-26T05:06:42.174Z,24.83
2023-01-26T05:09:10.417Z,23.02
2023-01-26T05:11:38.853Z,23.00
2023-01-26T05:14:21.209Z,24.25
2023-01-26T05:16:59.339Z,24.05
2023-01-26T05:19:43.153Z,23.70
2023-01-26T05:22:28.665Z,26.05
2023-01-26T05:25:33.877Z,26.42
2023-01-26T05:28:07.649Z,26.48
2023-01-26T05:30:35.307Z,27.60
2023-01-26T05:33:04.740Z,28.83
2023-01-26T05:35:32.428Z,31.63
2023-01-26T05:37:59.479Z,29.08
2023-01-26T05:40:28.070Z,27.30
2023-01-26T05:42:55.352Z,30.58
2023-01-26T05:45:43.939Z,29.63
2023-01-26T05:48:12.329Z,29.45
2023-01-26T05:50:39.559Z,28.77
2023-01-26T05:53:19.711Z,28.25
2023-01-26T05:55:47.762Z,28.52
2023-01-26T05:58:14.910Z,30.50
2023-01-26T06:00:42.235Z,29.65
2023-01-26T06:03:15.763Z,29.70
2023-01-26T06:05:43.011Z,28.60
2023-01-26T06:08:22.022Z,28.20
2023-01-26T06:11:09.418Z,25.73
2023-01-26T06:13:45.959Z,28.52
2023-01-26T06:16:24.658Z,27.13
2023-01-26T06:18:51.621Z,27.25
2023-01-26T06:21:19.070Z,27.85
2023-01-26T06:23:45.985Z,26.10
2023-01-26T06:26:15.307Z,26.90
2023-01-26T06:28:44.393Z,25.55
2023-01-26T06:31:11.887Z,26.98
2023-01-26T06:33:40.000Z,27.02
2023-01-26T06:36:11.711Z,27.45
2023-01-26T06:38:40.149Z,26.20
2023-01-26T06:41:09.010Z,26.50
2023-01-26T06:43:36.869Z,25.17
2023-01-26T06:46:05.761Z,27.20
2023-01-26T06:48:35.143Z,27.05
2023-01-26T06:51:16.014Z,24.77
2023-01-26T06:53:48.461Z,24.98
2023-01-26T06:56:24.735Z,24.20
2023-01-26T06:59:11.113Z,23.38
2023-01-26T07:02:01.316Z,23.77
2023-01-26T07:04:28.269Z,23.42
2023-01-26T07:06:55.503Z,24.15
2023-01-26T07:09:22.411Z,23.55
2023-01-26T07:11:49.623Z,23.85
2023-01-26T07:14:16.498Z,22.02
2023-01-26T07:16:43.652Z,22.52
2023-01-26T07:19:10.639Z,23.27
2023-01-26T07:21:39.203Z,21.35
2023-01-26T07:24:06.777Z,22.08
2023-01-26T07:26:33.933Z,21.55
2023-01-26T07:29:00.804Z,21.52
2023-01-26T07:31:28.040Z,20.85
2023-01-26T07:33:55.036Z,22.45
2023-01-26T07:36:22.183Z,22.33
2023-01-26T07:38:49.114Z,19.25
2023-01-26T07:41:16.428Z,18.98
2023-01-26T07:43:43.364Z,19.58
2023-01-26T07:46:11.011Z,19.52
2023-01-26T07:48:38.439Z,21.52
2023-01-26T07:51:06.096Z,19.73
2023-01-26T07:53:37.666Z,20.13
2023-01-26T07:56:16.040Z,17.15
2023-01-26T07:58:43.135Z,19.33
2023-01-26T08:01:13.336Z,19.20
2023-01-26T08:03:41.569Z,15.80
2023-01-26T08:06:11.928Z,15.90
2023-01-26T08:08:41.114Z,16.20
2023-01-26T08:11:09.976Z,15.85
2023-01-26T08:13:37.408Z,14.95
2023-01-26T08:16:10.934Z,14.77
2023-01-26T08:18:43.120Z,14.40
2023-01-26T08:21:11.736Z,12.50
2023-01-26T08:23:39.096Z,13.20
2023-01-26T08:26:09.005Z,14.13
2023-01-26T08:28:36.822Z,14.02
2023-01-26T08:31:06.923Z,13.27
2023-01-26T08:33:34.720Z,13.75
2023-01-26T08:36:03.168Z,14.88
2023-01-26T08:38:31.955Z,13.45
2023-01-26T08:41:00.153Z,13.02
2023-01-26T08:43:27.789Z,12.88
2023-01-26T08:45:55.145Z,12.02
2023-01-26T08:48:22.250Z,13.05
2023-01-26T08:50:55.022Z,12.25
2023-01-26T08:53:23.369Z,12.55
2023-01-26T08:55:51.475Z,12.00
2023-01-26T08:58:20.452Z,11.75
2023-01-26T09:00:47.774Z,11.98
2023-01-26T09:03:15.221Z,11.63
2023-01-26T09:05:42.757Z,11.93
2023-01-26T09:08:10.287Z,13.02
2023-01-26T09:10:39.027Z,11.10
2023-01-26T09:13:06.226Z,11.65
2023-01-26T09:15:33.636Z,11.70
2023-01-26T09:18:01.179Z,12.23
2023-01-26T09:20:28.546Z,12.38
2023-01-26T09:22:55.446Z,11.73
2023-01-26T09:25:22.736Z,10.93
2023-01-26T09:27:49.606Z,11.60
2023-01-26T09:30:17.229Z,12.38
2023-01-26T09:32:44.160Z,12.18
2023-01-26T09:35:14.282Z,12.93
2023-01-26T09:37:43.806Z,12.48
2023-01-26T09:40:30.145Z,11.75
2023-01-26T09:43:22.294Z,12.40
2023-01-26T09:46:00.341Z,13.02
2023-01-26T09:48:42.361Z,10.77
2023-01-26T09:51:19.815Z,13.00
2023-01-26T09:53:57.485Z,11.88
2023-01-26T09:56:30.937Z,10.93
2023-01-26T09:59:03.888Z,12.13
2023-01-26T10:01:37.821Z,11.88
2023-01-26T10:04:16.107Z,12.23
2023-01-26T10:06:44.339Z,11.60
2023-01-26T10:09:26.721Z,12.02
2023-01-26T10:11:58.474Z,11.55
2023-01-26T10:17:00.292Z,11.20
2023-01-26T10:19:39.445Z,11.18
2023-01-26T10:22:22.357Z,11.55
2023-01-26T10:24:50.996Z,10.52
2023-01-26T10:27:19.103Z,11.35
2023-01-26T10:29:46.118Z,11.65
2023-01-26T10:32:17.241Z,11.40
2023-01-26T10:34:46.628Z,8.27
2023-01-26T10:37:23.533Z,10.57
2023-01-26T10:40:01.881Z,11.40
2023-01-26T10:42:32.250Z,10.93
2023-01-26T10:45:02.218Z,11.90
2023-01-26T10:47:29.898Z,12.13
2023-01-26T10:50:20.075Z,10.68
2023-01-26T10:53:01.683Z,11.35
2023-01-26T10:55:30.233Z,11.60
2023-01-26T10:57:57.997Z,11.50
2023-01-26T11:00:33.691Z,11.45
2023-01-26T11:03:19.191Z,11.02
2023-01-26T11:05:48.235Z,12.05
2023-01-26T11:08:36.805Z,12.18
2023-01-26T11:11:06.891Z,10.63
2023-01-26T11:13:34.139Z,11.50
2023-01-26T11:16:24.656Z,11.70
2023-01-26T11:18:54.923Z,12.80
2023-01-26T11:21:37.137Z,11.23
2023-01-26T11:24:23.283Z,12.23
2023-01-26T11:27:10.561Z,11.90
2023-01-26T11:29:41.152Z,12.68
2023-01-26T11:32:38.348Z,12.90
2023-01-26T11:35:36.668Z,12.57
2023-01-26T11:38:09.709Z,13.45
2023-01-26T11:40:55.893Z,11.43
2023-01-26T11:43:37.726Z,15.30
2023-01-26T11:46:19.408Z,12.70
2023-01-26T11:49:23.901Z,11.63
2023-01-26T11:51:51.053Z,11.20
2023-01-26T11:54:30.114Z,12.20
2023-01-26T11:57:09.862Z,18.23
2023-01-26T11:59:42.582Z,13.60
2023-01-26T12:02:28.071Z,12.45
2023-01-26T12:04:58.904Z,13.13
2023-01-26T12:07:51.176Z,12.48
2023-01-26T12:10:24.260Z,19.42
2023-01-26T12:12:58.810Z,12.27
2023-01-26T12:15:33.111Z,11.45
2023-01-26T12:18:09.963Z,11.13
2023-01-26T12:20:45.672Z,12.32
2023-01-26T12:23:39.289Z,13.35
2023-01-26T12:26:13.494Z,11.45
2023-01-26T12:28:49.052Z,11.98
2023-01-26T12:31:55.205Z,13.40
2023-01-26T12:34:28.283Z,12.98
2023-01-26T12:37:28.805Z,12.85
2023-01-26T12:40:21.756Z,14.48
2023-01-26T12:43:21.250Z,11.70
2023-01-26T12:45:53.453Z,14.55
2023-01-26T12:48:25.818Z,13.52
2023-01-26T12:51:01.583Z,14.75
2023-01-26T12:53:38.752Z,14.35
2023-01-26T12:56:05.975Z,13.90
2023-01-26T12:58:37.540Z,14.85
2023-01-26T13:01:19.572Z,14.52
2023-01-26T13:03:57.270Z,13.57
2023-01-26T13:06:29.067Z,17.08
2023-01-26T13:14:47.369Z,15.32
2023-01-26T13:17:15.026Z,16.23
2023-01-26T13:19:42.150Z,14.75
2023-01-26T13:22:39.819Z,14.68
2023-01-26T13:25:28.324Z,15.20
2023-01-26T13:27:58.332Z,15.07
2023-01-26T13:30:31.379Z,15.20
2023-01-26T13:33:13.739Z,16.67
2023-01-26T13:35:41.246Z,15.23
2023-01-26T13:38:29.006Z,16.23
2023-01-26T13:40:56.165Z,15.77
2023-01-26T13:43:37.207Z,17.02
2023-01-26T13:46:10.463Z,15.40
2023-01-26T13:48:44.563Z,15.18
2023-01-26T13:51:24.539Z,14.65
2023-01-26T13:54:14.503Z,16.02
2023-01-26T13:56:43.260Z,16.38
2023-01-26T13:59:16.517Z,14.90
2023-01-26T14:01:46.440Z,14.70
2023-01-26T14:04:21.427Z,15.23
2023-01-26T14:07:15.700Z,16.00
2023-01-26T14:09:49.500Z,15.98
2023-01-26T14:12:23.896Z,17.02
2023-01-26T14:15:03.745Z,14.43
2023-01-26T14:17:33.422Z,14.45
2023-01-26T14:20:03.639Z,17.95
2023-01-26T14:22:30.752Z,16.80
2023-01-26T14:24:57.908Z,15.82
2023-01-26T14:27:27.543Z,17.40
2023-01-26T14:29:54.719Z,16.80
2023-01-26T14:32:25.512Z,16.83
2023-01-26T14:34:55.461Z,14.13
2023-01-26T14:37:22.973Z,14.80
2023-01-26T14:39:50.516Z,13.93
2023-01-26T14:42:20.674Z,15.80
2023-01-26T14:44:47.962Z,15.82
2023-01-26T14:47:25.372Z,15.50
2023-01-26T14:50:10.966Z,16.48
2023-01-26T14:52:42.970Z,16.38
2023-01-26T14:55:22.639Z,16.17
2023-01-26T14:57:52.036Z,14.13
2023-01-26T15:00:29.448Z,16.45
2023-01-26T15:02:58.940Z,13.95
2023-01-26T15:05:35.806Z,14.68
2023-01-26T15:08:21.224Z,16.13
2023-01-26T15:11:15.740Z,14.65
2023-01-26T15:13:45.068Z,14.85
2023-01-26T15:16:21.160Z,14.15
2023-01-26T15:18:59.475Z,14.07
2023-01-26T15:21:39.723Z,14.50
2023-01-26T15:24:13.772Z,14.68
2023-01-26T15:26:41.545Z,15.15
2023-01-26T15:29:21.160Z,14.95
2023-01-26T15:31:56.253Z,14.40
2023-01-26T15:34:35.026Z,14.00
2023-01-26T15:37:04.283Z,13.30
2023-01-26T15:39:31.380Z,13.45
2023-01-26T15:42:14.642Z,14.25
2023-01-26T15:44:42.408Z,14.50
2023-01-26T15:47:11.221Z,13.98
2023-01-26T15:49:38.765Z,14.77
2023-01-26T15:52:17.981Z,14.30
2023-01-26T15:54:45.417Z,15.45
2023-01-26T15:57:13.670Z,14.38
2023-01-26T15:59:40.969Z,15.00
2023-01-26T16:02:18.038Z,13.43
2023-01-26T16:04:45.200Z,12.55
2023-01-26T16:07:14.493Z,13.38
2023-01-26T16:09:42.088Z,13.18
2023-01-26T16:12:30.567Z,13.25
2023-01-26T16:14:58.564Z,14.35
2023-01-26T16:17:25.916Z,12.90
2023-01-26T16:19:52.800Z,13.07
2023-01-26T16:22:20.002Z,12.93
2023-01-26T16:24:47.048Z,14.30
2023-01-26T16:27:14.207Z,13.52
2023-01-26T16:29:41.270Z,12.60
2023-01-26T16:32:29.041Z,14.50
2023-01-26T16:34:56.340Z,15.82
2023-01-26T16:37:23.510Z,12.85
2023-01-26T16:39:50.475Z,13.30
2023-01-26T16:42:20.034Z,12.43
2023-01-26T16:44:47.742Z,13.13
2023-01-26T16:47:15.283Z,13.35
2023-01-26T16:49:42.282Z,13.27
2023-01-26T16:52:10.104Z,12.20
2023-01-26T16:54:37.280Z,13.70
2023-01-26T16:57:05.003Z,12.75
2023-01-26T16:59:32.043Z,13.43
2023-01-26T17:02:00.019Z,13.45
2023-01-26T17:04:26.995Z,13.07
2023-01-26T17:06:54.132Z,13.00
2023-01-26T17:09:23.224Z,12.70
2023-01-26T17:11:50.712Z,14.57
2023-01-26T17:14:17.738Z,15.73
2023-01-26T17:16:45.005Z,13.82
2023-01-26T17:19:11.952Z,13.13
2023-01-26T17:21:39.188Z,13.30
2023-01-26T17:24:07.240Z,14.55
2023-01-26T17:26:34.557Z,14.38
2023-01-26T17:29:01.443Z,12.63
2023-01-26T17:31:30.324Z,14.23
2023-01-26T17:33:57.808Z,13.30
2023-01-26T17:36:25.179Z,12.88
2023-01-26T17:38:52.640Z,13.23
2023-01-26T17:41:20.017Z,12.75
2023-01-26T17:43:47.939Z,12.32
2023-01-26T17:46:18.285Z,12.05
2023-01-26T17:48:46.467Z,13.05
2023-01-26T17:51:19.608Z,12.38
2023-01-26T17:53:49.795Z,12.73
2023-01-26T17:56:19.456Z,13.80
2023-01-26T17:58:52.139Z,12.52
2023-01-26T18:01:20.513Z,11.55
2023-01-26T18:03:47.910Z,13.15
2023-01-26T18:06:15.476Z,14.43
2023-01-26T18:08:42.494Z,13.23
2023-01-26T18:11:12.452Z,14.43
2023-01-26T18:13:39.750Z,13.15
2023-01-26T18:16:10.979Z,13.02
2023-01-26T18:18:38.010Z,12.68
2023-01-26T18:21:25.132Z,12.27
2023-01-26T18:23:54.330Z,11.82
2023-01-26T18:26:24.690Z,12.57
2023-01-26T18:28:52.230Z,12.20
2023-01-26T18:31:31.785Z,12.13
2023-01-26T18:34:00.270Z,12.48
2023-01-26T18:36:28.113Z,12.05
2023-01-26T18:39:01.455Z,11.80
2023-01-26T18:41:30.687Z,12.57
2023-01-26T18:43:58.525Z,13.20
2023-01-26T18:46:28.235Z,13.85
2023-01-26T18:49:00.540Z,12.63
2023-01-26T18:51:29.938Z,13.30
2023-01-26T18:53:57.701Z,13.80
2023-01-26T18:56:25.329Z,13.88
2023-01-26T18:58:53.930Z,14.75
2023-01-26T19:01:22.294Z,13.65
2023-01-26T19:03:55.381Z,15.07
2023-01-26T19:06:25.047Z,13.95
2023-01-26T19:08:59.410Z,13.82
2023-01-26T19:11:28.753Z,15.77
2023-01-26T19:13:56.086Z,14.02
2023-01-26T19:16:23.975Z,16.35
2023-01-26T19:18:52.004Z,15.48
2023-01-26T19:21:24.555Z,14.20
2023-01-26T19:23:53.433Z,15.43
2023-01-26T19:26:24.106Z,14.88
2023-01-26T19:28:51.629Z,14.35
2023-01-26T19:31:19.655Z,14.93
2023-01-26T19:33:54.464Z,14.13
2023-01-26T19:36:22.374Z,12.48
2023-01-26T19:38:49.606Z,14.13
2023-01-26T19:41:18.105Z,13.55
2023-01-26T19:43:45.004Z,14.05
2023-01-26T19:46:13.781Z,13.50
2023-01-26T19:48:41.134Z,12.82
2023-01-26T19:51:22.618Z,12.35
2023-01-26T19:53:51.906Z,13.45
2023-01-26T19:56:28.167Z,13.02
2023-01-26T19:58:57.641Z,12.48
2023-01-26T20:01:26.460Z,13.00
2023-01-26T20:03:58.662Z,13.05
2023-01-26T20:06:29.071Z,13.23
2023-01-26T20:08:56.100Z,12.25
2023-01-26T20:11:25.274Z,13.25
2023-01-26T20:13:55.123Z,12.68
2023-01-26T20:16:22.970Z,12.38
2023-01-26T20:18:50.369Z,12.05
2023-01-26T20:21:17.812Z,12.23
2023-01-26T20:23:54.042Z,12.30
2023-01-26T20:26:21.853Z,12.05
2023-01-26T20:28:49.075Z,12.15
2023-01-26T20:31:20.181Z,10.63
2023-01-26T20:33:49.095Z,11.25
2023-01-26T20:36:23.058Z,11.27
2023-01-26T20:38:50.105Z,11.93
2023-01-26T20:41:25.312Z,11.38
2023-01-26T20:44:00.228Z,12.63
2023-01-26T20:46:34.058Z,12.13
2023-01-26T20:49:01.329Z,12.45
2023-01-26T20:51:33.717Z,12.15
2023-01-26T20:54:02.053Z,12.82
2023-01-26T20:56:29.393Z,12.77
2023-01-26T20:58:56.356Z,12.15
2023-01-26T21:01:24.988Z,12.30
2023-01-26T21:03:52.609Z,13.55
2023-01-26T21:06:21.686Z,11.88
2023-01-26T21:08:54.882Z,11.20
2023-01-26T21:11:24.660Z,11.88
2023-01-26T21:13:52.113Z,10.25
2023-01-26T21:16:19.569Z,12.40
2023-01-26T21:18:46.716Z,11.50
2023-01-26T21:21:17.725Z,11.85
2023-01-26T21:23:45.925Z,10.80
2023-01-26T21:26:16.173Z,11.98
2023-01-26T21:28:43.340Z,11.27
2023-01-26T21:31:13.924Z,11.18
2023-01-26T21:33:43.797Z,10.98
2023-01-26T21:36:13.431Z,11.50
2023-01-26T21:38:42.946Z,10.05
2023-01-26T21:41:32.714Z,10.40
2023-01-26T21:44:01.975Z,9.55
2023-01-26T21:46:30.265Z,12.30
2023-01-26T21:48:57.186Z,9.90
2023-01-26T21:51:43.955Z,11.80
2023-01-26T21:54:11.632Z,11.05
2023-01-26T21:56:39.258Z,11.73
2023-01-26T21:59:11.342Z,10.85
2023-01-26T22:01:40.308Z,11.50
2023-01-26T22:04:09.728Z,11.50
2023-01-26T22:06:37.292Z,11.68
2023-01-26T22:09:05.832Z,11.68
2023-01-26T22:11:33.172Z,12.45
2023-01-26T22:14:00.618Z,11.50
2023-01-26T22:16:28.313Z,12.63
2023-01-26T22:18:55.236Z,11.60
2023-01-26T22:21:23.041Z,11.30
2023-01-26T22:23:50.635Z,11.95
2023-01-26T22:26:20.260Z,11.63
2023-01-26T22:28:52.715Z,13.18
2023-01-26T22:31:22.985Z,13.07
2023-01-26T22:33:50.405Z,12.05
2023-01-26T22:36:18.696Z,13.30
2023-01-26T22:38:45.937Z,12.88
2023-01-26T22:41:19.512Z,12.98
2023-01-26T22:43:50.217Z,12.90
2023-01-26T22:46:19.973Z,12.68
2023-01-26T22:48:47.056Z,13.43
2023-01-26T22:51:26.205Z,14.75
2023-01-26T22:53:54.612Z,14.70
2023-01-26T22:56:22.172Z,15.20
2023-01-26T22:58:59.489Z,14.90
2023-01-26T23:01:32.154Z,15.40
2023-01-26T23:04:00.484Z,15.50
2023-01-26T23:06:28.644Z,13.73
2023-01-26T23:08:55.614Z,14.80
2023-01-26T23:11:25.451Z,14.90
2023-01-26T23:13:53.786Z,14.77
2023-01-26T23:16:23.486Z,15.77
2023-01-26T23:18:52.335Z,14.95
2023-01-26T23:21:20.107Z,17.02
2023-01-26T23:23:47.191Z,15.05
2023-01-26T23:26:14.559Z,15.75
2023-01-26T23:28:43.250Z,17.73
2023-01-26T23:31:12.204Z,15.15
2023-01-26T23:33:39.995Z,16.23
2023-01-26T23:36:09.070Z,16.10
2023-01-26T23:38:36.101Z,16.52
2023-01-26T23:41:05.435Z,16.42
2023-01-26T23:43:32.818Z,16.00
2023-01-26T23:46:00.325Z,14.55
2023-01-26T23:48:27.399Z,15.88
2023-01-26T23:51:00.075Z,14.88
2023-01-26T23:53:30.906Z,14.88
2023-01-26T23:56:00.793Z,14.73
2023-01-26T23:58:27.764Z,14.55
